Time;durP1;ratioP1;P1;durP2;ratioP2;P2;SDS_P1;SDS_P2;PMS_P1;PMS_P2;Temp;Humidity;BMP_temperature;BMP_pressure;BME280_temperature;BME280_humidity;BME280_pressure;Samples;Min_cycle;Max_cycle;Signal;HPM_P1;HPM_P2
2021/07/13 00:00:49;;;;;;;8.77;4.67;;;14.80;99.90;;;;;;5033922;28;20296;-80
2021/07/13 00:03:16;;;;;;;7.67;4.73;;;14.80;99.90;;;;;;5042731;28;20742;-80
2021/07/13 00:05:43;;;;;;;8.73;4.53;;;14.80;99.90;;;;;;5043367;28;20223;-81
2021/07/13 00:08:10;;;;;;;10.33;4.57;;;14.80;99.90;;;;;;5041073;28;20284;-81
2021/07/13 00:10:41;;;;;;;6.47;4.23;;;14.80;99.90;;;;;;5036240;28;20232;-81
2021/07/13 00:13:08;;;;;;;15.67;4.63;;;14.80;99.90;;;;;;5051525;28;20255;-81
2021/07/13 00:15:37;;;;;;;10.57;4.70;;;14.80;99.90;;;;;;5053437;28;20234;-80
2021/07/13 00:18:06;;;;;;;10.80;4.90;;;14.80;99.90;;;;;;5052954;28;20226;-81
2021/07/13 00:20:33;;;;;;;4.67;4.20;;;14.80;99.90;;;;;;5052647;28;20254;-80
2021/07/13 00:23:00;;;;;;;5.90;4.30;;;14.80;99.90;;;;;;5042191;28;20231;-81
2021/07/13 00:25:29;;;;;;;8.57;4.80;;;14.80;99.90;;;;;;5053554;28;20236;-80
2021/07/13 00:27:58;;;;;;;8.10;4.70;;;14.80;99.90;;;;;;5053611;28;20282;-80
2021/07/13 00:30:26;;;;;;;8.90;5.03;;;14.80;99.90;;;;;;5053779;28;20639;-80
2021/07/13 00:32:53;;;;;;;7.03;4.40;;;14.70;99.90;;;;;;5043315;28;20235;-80
2021/07/13 00:35:20;;;;;;;9.60;4.60;;;14.70;99.90;;;;;;5034037;28;20300;-80
2021/07/13 00:37:48;;;;;;;7.13;4.33;;;14.70;99.90;;;;;;5033616;28;20236;-80
2021/07/13 00:40:18;;;;;;;6.33;4.43;;;14.70;99.90;;;;;;5041576;28;20196;-80
2021/07/13 00:42:46;;;;;;;8.03;4.70;;;14.70;99.90;;;;;;5051946;28;20282;-80
2021/07/13 00:45:15;;;;;;;6.97;4.60;;;14.70;99.90;;;;;;5033748;28;20284;-80
2021/07/13 00:47:42;;;;;;;5.30;4.80;;;14.70;99.90;;;;;;5032871;28;20324;-80
2021/07/13 00:50:10;;;;;;;6.00;4.40;;;14.70;99.90;;;;;;5040269;28;20286;-80
2021/07/13 00:52:37;;;;;;;8.63;4.87;;;14.70;99.90;;;;;;5050567;28;20227;-80
2021/07/13 00:55:05;;;;;;;8.13;4.57;;;14.60;99.90;;;;;;5053042;28;20314;-81
2021/07/13 00:57:33;;;;;;;7.37;4.77;;;14.60;99.90;;;;;;5052464;28;20272;-81
2021/07/13 01:00:00;;;;;;;7.57;4.83;;;14.60;99.90;;;;;;5043454;28;20242;-81
2021/07/13 01:02:28;;;;;;;6.83;4.37;;;14.60;99.90;;;;;;5032337;28;20282;-80
2021/07/13 01:05:00;;;;;;;11.37;5.13;;;14.60;99.90;;;;;;5037501;28;20624;-81
2021/07/13 01:07:35;;;;;;;8.37;4.57;;;14.60;99.90;;;;;;5034256;28;20191;-80
2021/07/13 01:10:11;;;;;;;5.80;4.80;;;14.60;99.90;;;;;;5033550;28;20215;-80
2021/07/13 01:12:54;;;;;;;6.77;4.77;;;14.60;99.90;;;;;;5033161;28;20235;-80
2021/07/13 01:15:24;;;;;;;6.60;4.60;;;14.60;99.90;;;;;;5032183;28;20308;-80
2021/07/13 01:17:56;;;;;;;6.27;4.63;;;14.60;99.90;;;;;;5032914;28;20618;-81
2021/07/13 01:20:57;;;;;;;8.43;4.60;;;14.60;99.90;;;;;;5032785;28;20350;-80
2021/07/13 01:23:31;;;;;;;8.73;4.40;;;14.60;99.90;;;;;;4984084;28;20263;-80
2021/07/13 01:26:05;;;;;;;6.13;4.33;;;14.70;99.90;;;;;;4980024;28;20281;-80
2021/07/13 01:28:40;;;;;;;6.77;4.27;;;14.60;99.90;;;;;;4971828;28;20305;-80
2021/07/13 01:31:10;;;;;;;7.67;4.07;;;14.60;99.90;;;;;;4971467;28;20202;-80
2021/07/13 01:33:38;;;;;;;5.40;4.07;;;14.70;99.90;;;;;;4986823;28;20236;-80
2021/07/13 01:36:09;;;;;;;7.00;4.07;;;14.70;99.90;;;;;;4971405;28;20289;-81
2021/07/13 01:38:41;;;;;;;5.43;3.77;;;14.70;99.90;;;;;;4971180;28;20869;-80
2021/07/13 01:41:13;;;;;;;6.83;4.10;;;14.70;99.90;;;;;;4970427;28;20426;-80
2021/07/13 01:43:44;;;;;;;6.27;4.10;;;14.70;99.90;;;;;;4970770;28;20285;-80
2021/07/13 01:46:13;;;;;;;9.07;4.03;;;14.70;99.90;;;;;;4981286;28;20313;-80
2021/07/13 01:48:43;;;;;;;6.53;4.37;;;14.70;99.90;;;;;;4990797;28;20210;-80
2021/07/13 01:51:10;;;;;;;7.27;4.30;;;14.70;99.90;;;;;;4976715;28;20329;-80
2021/07/13 01:53:39;;;;;;;7.20;4.23;;;14.70;99.90;;;;;;4990557;28;20235;-80
2021/07/13 01:56:07;;;;;;;6.50;4.07;;;14.70;99.90;;;;;;4990267;28;20609;-81
2021/07/13 01:58:37;;;;;;;6.97;4.30;;;14.70;99.90;;;;;;4973967;28;20209;-80
2021/07/13 02:01:09;;;;;;;6.17;3.87;;;14.70;99.90;;;;;;5022679;28;20266;-81
2021/07/13 02:03:36;;;;;;;5.43;3.90;;;14.70;99.90;;;;;;5048688;28;20228;-80
2021/07/13 02:06:05;;;;;;;4.20;3.80;;;14.70;99.90;;;;;;5051899;28;20253;-81
2021/07/13 02:08:35;;;;;;;5.53;3.90;;;14.70;99.90;;;;;;5036517;28;20652;-80
2021/07/13 02:11:02;;;;;;;6.40;3.93;;;14.70;99.90;;;;;;5032075;28;20290;-81
2021/07/13 02:13:30;;;;;;;8.10;4.07;;;14.70;99.90;;;;;;5032030;28;20283;-80
2021/07/13 02:15:59;;;;;;;7.50;4.30;;;14.70;99.90;;;;;;5030819;28;20243;-80
2021/07/13 02:18:27;;;;;;;5.43;4.83;;;14.60;99.90;;;;;;5039484;28;20242;-80
2021/07/13 02:20:54;;;;;;;6.23;4.20;;;14.60;99.90;;;;;;5040426;28;20269;-80
2021/07/13 02:23:22;;;;;;;8.00;4.33;;;14.60;99.90;;;;;;5039853;28;20239;-80
2021/07/13 02:25:53;;;;;;;7.87;4.40;;;14.60;99.90;;;;;;5036653;28;20608;-80
2021/07/13 02:28:29;;;;;;;7.97;4.43;;;14.60;99.90;;;;;;5051683;28;20238;-80
2021/07/13 02:31:03;;;;;;;6.50;4.07;;;14.60;99.90;;;;;;5051704;28;20286;-80
2021/07/13 02:33:38;;;;;;;5.20;4.00;;;14.60;99.90;;;;;;5033879;28;20200;-80
2021/07/13 02:36:12;;;;;;;5.37;4.50;;;14.60;99.90;;;;;;5038572;28;20290;-80
2021/07/13 02:38:40;;;;;;;5.40;3.87;;;14.60;99.90;;;;;;5050926;28;20191;-80
2021/07/13 02:41:08;;;;;;;5.97;3.93;;;14.60;99.90;;;;;;5051366;28;20675;-80
2021/07/13 02:43:37;;;;;;;5.97;4.00;;;14.60;99.90;;;;;;5048006;28;20259;-80
2021/07/13 02:46:05;;;;;;;7.20;4.17;;;14.60;99.90;;;;;;5031815;28;20231;-80
2021/07/13 02:48:37;;;;;;;5.97;4.20;;;14.60;99.90;;;;;;5038606;28;20234;-80
2021/07/13 02:51:05;;;;;;;6.77;4.07;;;14.60;99.90;;;;;;5031760;28;20215;-80
2021/07/13 02:53:34;;;;;;;7.23;3.90;;;14.60;99.90;;;;;;5031517;28;20566;-81
2021/07/13 02:56:03;;;;;;;5.73;4.03;;;14.60;99.90;;;;;;5031760;28;20205;-81
2021/07/13 02:58:31;;;;;;;5.23;4.20;;;14.60;99.90;;;;;;5031430;28;20205;-80
2021/07/13 03:01:00;;;;;;;8.93;4.73;;;14.60;99.90;;;;;;5048977;28;20282;-81
2021/07/13 03:03:27;;;;;;;11.27;4.57;;;14.50;99.90;;;;;;5035902;28;20235;-81
2021/07/13 03:05:56;;;;;;;6.80;4.67;;;14.60;99.90;;;;;;5031521;28;20696;-81
2021/07/13 03:08:24;;;;;;;7.47;4.80;;;14.60;99.90;;;;;;5031589;28;20232;-80
2021/07/13 03:10:52;;;;;;;6.80;4.60;;;14.60;99.90;;;;;;5034664;28;20238;-80
2021/07/13 03:13:22;;;;;;;6.33;4.63;;;14.60;99.90;;;;;;5050304;28;20235;-80
2021/07/13 03:15:50;;;;;;;8.13;5.00;;;14.60;99.90;;;;;;5046955;28;20302;-80
2021/07/13 03:18:17;;;;;;;5.77;4.60;;;14.60;99.90;;;;;;5034272;28;20287;-80
2021/07/13 03:20:47;;;;;;;7.67;4.63;;;14.60;99.90;;;;;;5049522;28;20291;-80
2021/07/13 03:23:17;;;;;;;6.87;4.77;;;14.60;99.90;;;;;;5036751;28;20295;-80
2021/07/13 03:25:45;;;;;;;9.10;4.87;;;14.60;99.90;;;;;;5035857;28;20228;-80
2021/07/13 03:28:14;;;;;;;7.13;5.33;;;14.60;99.90;;;;;;5046221;28;20296;-81
2021/07/13 03:30:42;;;;;;;7.90;5.43;;;14.50;99.90;;;;;;5041873;28;20648;-80
2021/07/13 03:33:11;;;;;;;8.33;5.30;;;14.60;99.90;;;;;;5052588;28;20275;-80
2021/07/13 03:35:38;;;;;;;7.47;5.03;;;14.60;99.90;;;;;;5034814;28;20353;-80
2021/07/13 03:38:06;;;;;;;7.20;5.30;;;14.60;99.90;;;;;;5033505;28;20200;-81
2021/07/13 03:40:35;;;;;;;8.07;5.30;;;14.60;99.90;;;;;;5043894;28;20232;-80
2021/07/13 03:43:02;;;;;;;7.67;5.30;;;14.60;99.90;;;;;;5050123;28;20306;-81
2021/07/13 03:45:29;;;;;;;7.83;5.20;;;14.60;99.90;;;;;;5035268;28;20283;-80
2021/07/13 03:47:58;;;;;;;6.97;5.47;;;14.60;99.90;;;;;;5034520;28;20236;-81
2021/07/13 03:50:29;;;;;;;7.27;5.30;;;14.60;99.90;;;;;;5047595;28;20203;-81
2021/07/13 03:52:56;;;;;;;6.13;5.03;;;14.60;99.90;;;;;;5049549;28;20250;-81
2021/07/13 03:55:23;;;;;;;8.53;5.73;;;14.60;99.90;;;;;;5034495;28;20267;-81
2021/07/13 03:57:53;;;;;;;7.47;5.70;;;14.60;99.90;;;;;;5038187;28;20287;-81
2021/07/13 04:00:22;;;;;;;8.73;5.33;;;14.60;99.90;;;;;;5037655;28;20616;-80
2021/07/13 04:02:49;;;;;;;7.80;5.63;;;14.60;99.90;;;;;;5035448;28;20249;-81
2021/07/13 04:05:17;;;;;;;9.10;5.40;;;14.60;99.90;;;;;;5034413;28;20637;-80
2021/07/13 04:07:44;;;;;;;8.23;5.60;;;14.60;99.90;;;;;;5043198;28;20227;-81
2021/07/13 04:10:13;;;;;;;10.50;5.60;;;14.60;99.90;;;;;;5054025;28;20231;-81
2021/07/13 04:12:40;;;;;;;8.67;5.40;;;14.60;99.90;;;;;;5046118;28;20234;-81
2021/07/13 04:15:11;;;;;;;6.73;5.47;;;14.70;99.90;;;;;;5045067;28;20716;-80
2021/07/13 04:17:38;;;;;;;8.37;5.77;;;14.70;99.90;;;;;;5038829;28;20274;-80
2021/07/13 04:20:06;;;;;;;6.50;5.50;;;14.70;99.90;;;;;;5051239;28;20238;-82
2021/07/13 04:22:33;;;;;;;10.00;5.70;;;14.70;99.90;;;;;;5041412;28;20750;-80
2021/07/13 04:25:00;;;;;;;8.27;6.00;;;14.70;99.90;;;;;;5040111;28;20610;-81
2021/07/13 04:27:27;;;;;;;8.17;6.33;;;14.70;99.90;;;;;;5043083;28;20578;-81
2021/07/13 04:29:54;;;;;;;8.07;6.07;;;14.70;99.90;;;;;;5033505;28;20287;-80
2021/07/13 04:32:23;;;;;;;9.17;5.93;;;14.70;99.90;;;;;;5033276;28;20672;-81
2021/07/13 04:34:49;;;;;;;8.70;6.53;;;14.70;99.90;;;;;;5033697;28;20228;-81
2021/07/13 04:37:16;;;;;;;8.30;6.17;;;14.70;99.90;;;;;;5032619;28;20283;-81
2021/07/13 04:39:43;;;;;;;6.73;5.57;;;14.70;99.90;;;;;;5033097;28;20232;-81
2021/07/13 04:42:10;;;;;;;8.23;5.90;;;14.60;99.90;;;;;;5040164;28;20227;-81
2021/07/13 04:44:37;;;;;;;8.53;6.27;;;14.70;99.90;;;;;;5053489;28;20283;-80
2021/07/13 04:47:04;;;;;;;10.53;6.53;;;14.70;99.90;;;;;;5053157;28;20239;-80
2021/07/13 04:49:33;;;;;;;9.00;6.00;;;14.70;99.90;;;;;;5035602;28;20249;-81
2021/07/13 04:52:00;;;;;;;10.07;6.70;;;14.70;99.90;;;;;;5046220;28;20228;-81
2021/07/13 04:54:30;;;;;;;9.43;6.93;;;14.70;99.90;;;;;;5043078;28;20338;-81
2021/07/13 04:56:58;;;;;;;9.80;6.70;;;14.70;99.90;;;;;;5033644;28;20287;-81
2021/07/13 04:59:25;;;;;;;13.03;7.30;;;14.70;99.90;;;;;;5033236;28;20705;-81
2021/07/13 05:01:52;;;;;;;11.47;6.67;;;14.80;99.90;;;;;;5030998;28;20200;-81
2021/07/13 05:04:19;;;;;;;13.37;7.07;;;14.80;99.90;;;;;;5033009;28;20759;-80
2021/07/13 05:06:47;;;;;;;12.83;7.10;;;14.90;99.90;;;;;;5048378;28;20231;-80
2021/07/13 05:09:14;;;;;;;13.23;7.20;;;14.90;99.90;;;;;;5046314;28;20225;-80
2021/07/13 05:11:41;;;;;;;13.53;7.83;;;14.90;99.90;;;;;;5033088;28;20233;-79
2021/07/13 05:14:08;;;;;;;16.17;7.43;;;14.90;99.90;;;;;;5052534;28;20238;-80
2021/07/13 05:16:35;;;;;;;13.43;7.40;;;15.00;99.90;;;;;;5052123;28;20302;-80
2021/07/13 05:19:02;;;;;;;14.93;8.23;;;15.00;99.90;;;;;;5042960;28;20239;-80
2021/07/13 05:21:29;;;;;;;13.67;7.73;;;15.00;99.90;;;;;;5039661;28;20269;-80
2021/07/13 05:23:57;;;;;;;14.57;8.00;;;15.10;99.90;;;;;;5050136;28;20199;-81
2021/07/13 05:26:25;;;;;;;13.27;8.00;;;15.10;99.90;;;;;;5046605;28;20200;-81
2021/07/13 05:28:53;;;;;;;15.50;8.63;;;15.10;99.90;;;;;;5052709;28;20206;-80
2021/07/13 05:31:20;;;;;;;11.20;8.80;;;15.10;99.90;;;;;;5050585;28;20227;-80
2021/07/13 05:33:48;;;;;;;15.00;9.13;;;15.20;99.90;;;;;;5032998;28;20236;-81
2021/07/13 05:36:15;;;;;;;15.03;9.40;;;15.30;99.90;;;;;;5032355;28;20743;-82
2021/07/13 05:38:42;;;;;;;14.37;9.27;;;15.30;99.90;;;;;;5032445;28;20631;-80
2021/07/13 05:41:11;;;;;;;15.33;9.33;;;15.30;99.90;;;;;;5040944;28;20231;-80
2021/07/13 05:43:39;;;;;;;22.07;9.23;;;15.40;99.90;;;;;;5046095;28;20640;-80
2021/07/13 05:46:06;;;;;;;18.73;9.60;;;15.50;99.90;;;;;;5040142;28;20227;-80
2021/07/13 05:48:32;;;;;;;15.10;9.47;;;15.50;99.90;;;;;;5030704;28;20236;-80
2021/07/13 05:50:59;;;;;;;16.63;9.47;;;15.50;99.90;;;;;;5025666;28;20284;-81
2021/07/13 05:53:26;;;;;;;13.53;8.73;;;15.60;99.90;;;;;;5011628;28;20243;-81
2021/07/13 05:55:53;;;;;;;22.70;8.83;;;15.60;99.90;;;;;;5012491;28;20267;-81
2021/07/13 05:58:22;;;;;;;15.13;9.07;;;15.60;99.90;;;;;;5011738;28;20289;-81
2021/07/13 06:00:49;;;;;;;13.67;8.93;;;15.60;99.90;;;;;;5013100;28;20205;-80
2021/07/13 06:03:16;;;;;;;17.70;8.77;;;15.60;99.90;;;;;;5013878;28;20292;-79
2021/07/13 06:05:44;;;;;;;10.67;7.80;;;15.60;99.90;;;;;;5011597;28;20233;-79
2021/07/13 06:08:11;;;;;;;12.33;8.50;;;15.70;99.90;;;;;;5011760;28;20204;-79
2021/07/13 06:10:38;;;;;;;15.63;7.80;;;15.80;99.90;;;;;;5012221;28;20296;-79
2021/07/13 06:13:05;;;;;;;10.40;7.10;;;15.80;99.90;;;;;;5012575;28;20288;-79
2021/07/13 06:15:33;;;;;;;12.30;6.30;;;15.80;99.90;;;;;;5011755;28;20213;-79
2021/07/13 06:18:00;;;;;;;10.67;6.50;;;15.80;99.90;;;;;;5012516;28;20237;-79
2021/07/13 06:20:27;;;;;;;8.53;5.43;;;15.80;99.90;;;;;;5012056;28;20251;-79
2021/07/13 06:22:54;;;;;;;9.60;5.57;;;15.80;99.90;;;;;;5012084;28;20316;-78
2021/07/13 06:25:21;;;;;;;10.40;6.00;;;15.90;99.90;;;;;;5011904;28;20280;-79
2021/07/13 06:27:49;;;;;;;9.40;6.63;;;16.00;99.90;;;;;;5012232;28;20229;-78
2021/07/13 06:30:18;;;;;;;10.93;6.27;;;16.00;99.90;;;;;;5012061;28;20201;-78
2021/07/13 06:32:46;;;;;;;14.20;7.20;;;16.00;99.90;;;;;;5012180;28;20207;-78
2021/07/13 06:35:14;;;;;;;12.37;8.00;;;16.00;99.90;;;;;;5011996;28;20221;-78
2021/07/13 06:37:41;;;;;;;14.53;8.33;;;15.90;99.90;;;;;;5012224;28;20236;-78
2021/07/13 06:40:09;;;;;;;14.10;9.03;;;15.90;99.90;;;;;;5012394;28;20236;-79
2021/07/13 06:42:36;;;;;;;16.47;9.47;;;15.90;99.90;;;;;;5011891;28;20735;-78
2021/07/13 06:45:03;;;;;;;16.93;10.20;;;16.00;99.90;;;;;;5012236;28;20240;-78
2021/07/13 06:47:30;;;;;;;16.17;10.30;;;16.00;99.90;;;;;;5034699;28;20322;-79
2021/07/13 06:49:58;;;;;;;14.50;9.17;;;16.00;99.90;;;;;;5051482;28;20290;-78
2021/07/13 06:52:25;;;;;;;23.40;9.67;;;16.00;99.90;;;;;;5051784;28;20291;-79
2021/07/13 06:54:52;;;;;;;17.10;9.23;;;16.00;99.90;;;;;;5040192;28;20240;-79
2021/07/13 06:57:21;;;;;;;19.47;9.40;;;16.00;99.90;;;;;;5031995;28;20207;-79
2021/07/13 06:59:48;;;;;;;18.80;9.43;;;16.00;99.90;;;;;;5031739;28;20273;-79
2021/07/13 07:02:15;;;;;;;15.63;9.27;;;15.90;99.90;;;;;;5034835;28;20291;-79
2021/07/13 07:04:42;;;;;;;19.17;9.40;;;15.90;99.90;;;;;;5035253;28;20291;-79
2021/07/13 07:07:10;;;;;;;19.20;9.67;;;15.80;99.90;;;;;;5035483;28;20287;-78
2021/07/13 07:09:37;;;;;;;14.87;8.60;;;15.80;99.90;;;;;;5035266;28;20254;-79
2021/07/13 07:12:04;;;;;;;17.20;8.93;;;15.80;99.90;;;;;;5035309;28;20287;-79
2021/07/13 07:14:31;;;;;;;16.87;9.10;;;15.90;99.90;;;;;;5035222;28;20292;-78
2021/07/13 07:16:58;;;;;;;14.30;9.10;;;15.90;99.90;;;;;;5035786;28;20310;-79
2021/07/13 07:19:25;;;;;;;17.23;8.27;;;15.90;99.90;;;;;;5034945;28;20238;-79
2021/07/13 07:21:52;;;;;;;12.57;8.33;;;15.90;99.90;;;;;;5045536;28;20222;-78
2021/07/13 07:24:20;;;;;;;12.13;7.90;;;15.90;99.90;;;;;;5050151;28;20288;-79
2021/07/13 07:26:47;;;;;;;17.33;8.20;;;15.80;99.90;;;;;;5034961;28;20330;-79
2021/07/13 07:29:14;;;;;;;15.40;7.83;;;15.90;99.90;;;;;;5035354;28;20247;-79
2021/07/13 07:31:41;;;;;;;14.10;7.90;;;15.90;99.90;;;;;;5035230;28;20232;-79
2021/07/13 07:34:08;;;;;;;11.50;7.27;;;16.00;99.90;;;;;;5034547;28;20671;-79
2021/07/13 07:36:35;;;;;;;13.23;7.83;;;16.00;99.90;;;;;;5034809;28;20324;-79
2021/07/13 07:39:03;;;;;;;17.37;7.43;;;16.00;99.90;;;;;;5049496;28;20664;-79
2021/07/13 07:41:32;;;;;;;12.17;8.13;;;16.10;99.90;;;;;;5055103;28;20231;-79
2021/07/13 07:44:00;;;;;;;11.87;7.67;;;16.10;99.90;;;;;;5054632;28;20291;-79
2021/07/13 07:46:27;;;;;;;13.13;7.30;;;16.20;99.90;;;;;;5054800;28;20653;-79
2021/07/13 07:48:54;;;;;;;10.13;7.33;;;16.10;99.90;;;;;;5047443;28;20250;-79
2021/07/13 07:51:21;;;;;;;12.23;7.33;;;16.00;99.90;;;;;;5034765;28;20239;-79
2021/07/13 07:53:48;;;;;;;17.87;7.80;;;16.00;99.90;;;;;;5034639;28;20283;-79
2021/07/13 07:56:14;;;;;;;10.07;7.80;;;16.20;99.90;;;;;;5034636;28;20658;-79
2021/07/13 07:58:43;;;;;;;10.60;7.63;;;16.30;99.90;;;;;;5034814;28;20276;-79
2021/07/13 08:01:10;;;;;;;11.43;7.13;;;16.30;99.90;;;;;;5037949;28;20629;-79
2021/07/13 08:03:37;;;;;;;9.20;6.53;;;16.30;99.90;;;;;;5054097;28;20576;-79
2021/07/13 08:06:04;;;;;;;9.33;6.37;;;16.40;99.90;;;;;;5054644;28;20219;-79
2021/07/13 08:08:31;;;;;;;10.87;6.93;;;16.40;99.90;;;;;;5039214;28;20287;-78
2021/07/13 08:10:58;;;;;;;11.70;7.40;;;16.30;99.90;;;;;;5035735;28;20747;-79
2021/07/13 08:13:25;;;;;;;10.60;7.33;;;16.40;99.90;;;;;;5054412;28;20231;-79
2021/07/13 08:15:54;;;;;;;11.00;7.20;;;16.60;99.90;;;;;;5053859;28;20255;-79
2021/07/13 08:18:21;;;;;;;11.20;7.07;;;16.50;99.90;;;;;;5053756;28;20683;-79
2021/07/13 08:20:49;;;;;;;10.50;7.53;;;16.40;99.90;;;;;;5039137;28;20296;-79
2021/07/13 08:23:16;;;;;;;12.27;7.60;;;16.50;99.90;;;;;;5034248;28;20211;-79
2021/07/13 08:25:43;;;;;;;12.97;7.83;;;16.50;99.90;;;;;;5034058;28;20287;-79
2021/07/13 08:28:10;;;;;;;11.27;7.43;;;16.40;99.90;;;;;;5033904;28;20236;-79
2021/07/13 08:30:37;;;;;;;9.27;6.63;;;16.70;99.90;;;;;;5044942;28;20291;-79
2021/07/13 08:33:05;;;;;;;8.13;6.77;;;16.90;99.90;;;;;;5051144;28;20282;-80
2021/07/13 08:35:32;;;;;;;10.00;6.50;;;17.20;99.90;;;;;;5033580;28;20689;-79
2021/07/13 08:37:59;;;;;;;13.87;6.50;;;17.80;99.90;;;;;;5033567;28;20196;-80
2021/07/13 08:40:28;;;;;;;12.27;5.97;;;18.10;99.90;;;;;;5033984;28;20232;-79
2021/07/13 08:42:56;;;;;;;9.93;6.05;;;18.20;99.90;;;;;;5033381;28;20672;-79
2021/07/13 08:45:24;;;;;;;8.88;6.30;;;18.40;99.90;;;;;;5033611;28;20573;-79
2021/07/13 08:47:52;;;;;;;9.13;5.93;;;18.30;99.90;;;;;;5032906;28;20734;-80
2021/07/13 08:50:22;;;;;;;8.43;5.50;;;18.70;99.90;;;;;;5033864;28;20200;-80
2021/07/13 08:52:49;;;;;;;9.07;5.50;;;19.10;99.90;;;;;;5033219;28;20235;-80
2021/07/13 08:55:17;;;;;;;8.90;5.75;;;19.00;99.90;;;;;;5040276;28;20294;-80
2021/07/13 08:57:45;;;;;;;8.45;5.18;;;18.60;99.90;;;;;;5042297;28;20726;-79
2021/07/13 09:00:15;;;;;;;7.43;5.65;;;18.10;99.90;;;;;;5033004;28;20296;-79
2021/07/13 09:03:04;;;;;;;9.68;6.40;;;17.50;99.90;;;;;;5033325;28;20243;-80
2021/07/13 09:05:44;;;;;;;10.88;6.00;;;17.40;99.90;;;;;;5051913;28;20283;-79
2021/07/13 09:08:13;;;;;;;10.02;6.05;;;17.20;99.90;;;;;;5052074;28;20200;-79
2021/07/13 09:10:40;;;;;;;8.35;6.30;;;17.00;99.90;;;;;;5053347;28;20254;-79
2021/07/13 09:13:07;;;;;;;7.90;6.00;;;17.00;99.90;;;;;;5052877;28;20286;-79
2021/07/13 09:15:34;;;;;;;8.07;6.50;;;17.00;99.90;;;;;;5052613;28;20239;-79
2021/07/13 09:18:01;;;;;;;10.73;7.07;;;16.90;99.90;;;;;;5052555;28;20658;-80
2021/07/13 09:20:29;;;;;;;8.73;7.10;;;16.80;99.90;;;;;;5052790;28;20606;-80
2021/07/13 09:22:59;;;;;;;10.23;7.97;;;16.80;99.90;;;;;;5052566;28;20250;-80
2021/07/13 09:25:31;;;;;;;11.63;7.97;;;16.90;99.90;;;;;;5052219;28;20204;-79
2021/07/13 09:28:13;;;;;;;13.40;8.23;;;17.00;99.90;;;;;;5046797;28;20204;-79
2021/07/13 09:30:42;;;;;;;9.77;7.67;;;17.40;99.90;;;;;;5034564;28;20632;-79
2021/07/13 09:33:17;;;;;;;11.48;7.80;;;18.30;99.90;;;;;;5032438;28;20608;-80
2021/07/13 09:36:08;;;;;;;9.88;7.00;;;18.80;99.90;;;;;;5032832;28;20265;-79
2021/07/13 09:38:38;;;;;;;8.73;6.75;;;18.90;99.90;;;;;;5032819;28;20236;-80
2021/07/13 09:41:11;;;;;;;8.65;6.57;;;18.70;99.90;;;;;;5049437;28;20675;-80
2021/07/13 09:43:48;;;;;;;8.80;6.43;;;18.50;99.90;;;;;;5051883;28;20235;-79
2021/07/13 09:46:34;;;;;;;7.63;6.28;;;18.60;99.90;;;;;;5036886;28;20284;-80
2021/07/13 09:49:16;;;;;;;7.35;6.22;;;18.50;99.90;;;;;;5032606;28;20231;-79
2021/07/13 09:51:44;;;;;;;10.85;7.28;;;18.30;99.90;;;;;;5034562;28;20262;-80
2021/07/13 09:54:34;;;;;;;8.70;7.13;;;18.00;99.90;;;;;;5032527;28;20228;-80
2021/07/13 09:57:01;;;;;;;7.38;6.60;;;18.00;99.90;;;;;;5050207;28;20595;-79
2021/07/13 09:59:28;;;;;;;9.63;7.40;;;18.10;99.90;;;;;;5052081;28;20234;-80
2021/07/13 10:01:55;;;;;;;11.43;7.78;;;18.40;99.90;;;;;;5051663;28;20230;-79
2021/07/13 10:04:22;;;;;;;9.15;7.55;;;18.40;99.90;;;;;;5052036;28;20291;-80
2021/07/13 10:06:52;;;;;;;11.23;7.68;;;18.40;99.90;;;;;;5051861;28;20658;-80
2021/07/13 10:09:24;;;;;;;11.65;7.45;;;18.60;99.90;;;;;;5051592;28;20612;-80
2021/07/13 10:11:52;;;;;;;10.40;7.57;;;18.70;99.90;;;;;;5034749;28;20547;-80
2021/07/13 10:14:20;;;;;;;9.98;7.53;;;18.60;99.90;;;;;;5032020;28;20262;-79
2021/07/13 10:16:47;;;;;;;10.73;7.55;;;18.30;99.90;;;;;;5032713;28;20653;-80
2021/07/13 10:19:14;;;;;;;12.57;7.85;;;18.20;99.90;;;;;;5051700;28;20659;-80
2021/07/13 10:21:44;;;;;;;9.98;7.60;;;18.30;99.90;;;;;;5050991;28;20310;-79
2021/07/13 10:24:12;;;;;;;10.18;7.78;;;18.20;99.90;;;;;;5038397;28;20755;-79
2021/07/13 10:26:47;;;;;;;12.20;7.80;;;18.30;99.90;;;;;;5036336;28;20294;-80
2021/07/13 10:29:37;;;;;;;12.27;7.90;;;18.40;99.90;;;;;;5046240;28;20243;-80
2021/07/13 10:32:07;;;;;;;9.75;7.70;;;18.50;99.90;;;;;;5031848;28;20220;-79
2021/07/13 10:34:50;;;;;;;11.77;7.97;;;18.60;99.90;;;;;;5031838;28;20200;-80
2021/07/13 10:37:33;;;;;;;9.15;7.75;;;18.60;99.90;;;;;;5035222;28;20322;-79
2021/07/13 10:40:02;;;;;;;12.20;8.15;;;18.30;99.90;;;;;;5034421;28;20199;-80
2021/07/13 10:42:46;;;;;;;12.10;8.40;;;18.50;99.90;;;;;;5035472;28;20706;-80
2021/07/13 10:45:16;;;;;;;12.52;8.25;;;18.70;99.90;;;;;;5034188;28;20200;-80
2021/07/13 10:48:00;;;;;;;14.80;8.45;;;18.70;99.90;;;;;;5035569;28;20271;-79
2021/07/13 10:50:52;;;;;;;9.43;8.27;;;18.70;99.90;;;;;;5034947;28;20236;-79
2021/07/13 10:53:35;;;;;;;11.38;8.63;;;18.70;99.90;;;;;;5033857;28;20200;-80
2021/07/13 10:56:10;;;;;;;11.63;8.98;;;18.70;99.90;;;;;;5054977;28;20244;-79
2021/07/13 10:58:50;;;;;;;13.25;8.98;;;18.90;99.90;;;;;;5035534;28;20617;-80
2021/07/13 11:01:28;;;;;;;10.80;8.70;;;19.10;99.90;;;;;;5046998;28;20226;-80
2021/07/13 11:04:14;;;;;;;12.43;8.73;;;19.10;99.90;;;;;;5055639;28;20632;-80
2021/07/13 11:06:53;;;;;;;14.40;8.43;;;19.30;99.90;;;;;;5055484;28;20278;-79
2021/07/13 11:09:34;;;;;;;11.80;9.32;;;19.70;99.90;;;;;;5038917;28;20253;-80
2021/07/13 11:12:14;;;;;;;11.65;8.80;;;19.50;99.90;;;;;;5035068;28;20694;-80
2021/07/13 11:15:05;;;;;;;12.25;8.68;;;20.00;99.90;;;;;;5034156;28;20251;-79
2021/07/13 11:17:34;;;;;;;11.82;9.45;;;19.80;99.90;;;;;;5035397;28;20278;-80
2021/07/13 11:20:14;;;;;;;10.88;9.18;;;19.50;99.90;;;;;;5035688;28;20208;-80
2021/07/13 11:22:43;;;;;;;11.32;9.82;;;19.10;99.90;;;;;;5035059;28;20598;-80
2021/07/13 11:25:24;;;;;;;12.25;8.95;;;19.10;99.90;;;;;;5041013;28;20206;-79
2021/07/13 11:28:05;;;;;;;10.80;8.98;;;19.30;99.90;;;;;;5054658;28;20286;-80
2021/07/13 11:30:32;;;;;;;10.70;8.93;;;19.70;99.90;;;;;;5050349;28;20208;-80
2021/07/13 11:33:08;;;;;;;11.70;8.80;;;19.50;99.90;;;;;;5034770;28;20295;-80
2021/07/13 11:35:37;;;;;;;9.85;8.70;;;19.80;99.90;;;;;;5035089;28;20688;-79
2021/07/13 11:38:07;;;;;;;13.00;9.77;;;19.70;99.90;;;;;;5049158;28;20687;-80
2021/07/13 11:40:34;;;;;;;13.38;9.02;;;19.60;99.90;;;;;;5054043;28;20862;-80
2021/07/13 11:43:01;;;;;;;12.32;9.32;;;19.90;99.90;;;;;;5055050;28;20250;-80
2021/07/13 11:45:28;;;;;;;11.90;9.57;;;21.40;99.90;;;;;;5054488;28;20715;-80
2021/07/13 11:48:03;;;;;;;10.98;9.55;;;22.50;99.90;;;;;;5054222;28;20425;-79
2021/07/13 11:50:31;;;;;;;10.43;9.43;;;21.90;99.90;;;;;;5050873;28;20279;-79
2021/07/13 11:52:59;;;;;;;11.40;9.43;;;22.00;99.90;;;;;;5034510;28;20684;-80
2021/07/13 11:55:26;;;;;;;12.50;9.75;;;22.30;99.90;;;;;;5043931;28;20544;-80
2021/07/13 11:57:53;;;;;;;11.45;10.20;;;22.50;99.90;;;;;;5047908;28;20324;-80
2021/07/13 12:00:30;;;;;;;10.95;9.50;;;22.30;99.90;;;;;;5034250;28;20263;-80
2021/07/13 12:02:57;;;;;;;10.63;9.48;;;22.70;99.90;;;;;;5034512;28;20286;-79
2021/07/13 12:05:24;;;;;;;10.93;8.85;;;22.30;99.90;;;;;;5034278;28;20291;-80
2021/07/13 12:07:52;;;;;;;10.02;9.02;;;23.00;99.90;;;;;;5034602;28;20247;-80
2021/07/13 12:10:19;;;;;;;11.98;9.18;;;22.30;99.90;;;;;;5033707;28;20638;-80
2021/07/13 12:12:46;;;;;;;10.05;8.98;;;22.00;99.90;;;;;;5034429;28;20291;-80
2021/07/13 12:15:21;;;;;;;10.13;8.32;;;22.30;99.90;;;;;;5034557;28;20235;-80
2021/07/13 12:17:48;;;;;;;10.90;8.80;;;22.30;99.90;;;;;;5034173;28;20314;-80
2021/07/13 12:20:15;;;;;;;9.90;8.82;;;21.90;99.90;;;;;;5034092;28;20236;-80
2021/07/13 12:22:42;;;;;;;9.88;8.45;;;22.00;99.90;;;;;;5034203;28;20307;-80
2021/07/13 12:25:11;;;;;;;9.60;8.60;;;22.10;99.90;;;;;;5034289;28;20243;-80
2021/07/13 12:27:38;;;;;;;9.68;8.18;;;21.90;99.90;;;;;;5034470;28;20279;-80
2021/07/13 12:30:13;;;;;;;10.45;8.43;;;22.20;99.90;;;;;;5051105;28;20287;-80
2021/07/13 12:32:41;;;;;;;11.45;8.93;;;22.20;99.90;;;;;;5041386;28;20206;-80
2021/07/13 12:35:14;;;;;;;8.65;7.65;;;21.80;99.90;;;;;;5041212;28;20286;-80
2021/07/13 12:37:43;;;;;;;12.90;8.25;;;22.10;99.90;;;;;;5036944;28;20224;-80
2021/07/13 12:40:13;;;;;;;9.25;7.43;;;22.00;99.90;;;;;;5053608;28;20200;-80
2021/07/13 12:42:43;;;;;;;10.48;7.70;;;22.30;99.90;;;;;;5053353;28;20286;-80
2021/07/13 12:45:14;;;;;;;9.07;7.22;;;22.20;99.90;;;;;;5053543;28;20704;-80
2021/07/13 12:47:46;;;;;;;8.40;7.30;;;22.10;99.90;;;;;;5053241;28;20777;-80
2021/07/13 12:50:19;;;;;;;7.65;6.95;;;22.00;99.90;;;;;;5053269;28;20687;-80
2021/07/13 12:53:02;;;;;;;9.57;7.82;;;21.90;99.90;;;;;;5052915;28;20239;-78